sensor_id;sensor_type;location;lat;lon;timestamp;P1;durP1;ratioP1;P2;durP2;ratioP2
21727;SDS011;11026;50.560;17.852;2023-02-17T00:02:12;52.85;;;29.98;;
21727;SDS011;11026;50.560;17.852;2023-02-17T00:04:47;52.85;;;29.50;;
21727;SDS011;11026;50.560;17.852;2023-02-17T00:07:15;51.45;;;29.92;;
21727;SDS011;11026;50.560;17.852;2023-02-17T00:09:42;56.72;;;31.00;;
21727;SDS011;11026;50.560;17.852;2023-02-17T00:12:10;54.70;;;30.83;;
21727;SDS011;11026;50.560;17.852;2023-02-17T00:14:40;56.42;;;29.65;;
21727;SDS011;11026;50.560;17.852;2023-02-17T00:17:08;53.47;;;30.05;;
21727;SDS011;11026;50.560;17.852;2023-02-17T00:19:35;55.40;;;30.80;;
21727;SDS011;11026;50.560;17.852;2023-02-17T00:22:02;54.65;;;32.13;;
21727;SDS011;11026;50.560;17.852;2023-02-17T00:24:39;53.03;;;32.30;;
21727;SDS011;11026;50.560;17.852;2023-02-17T00:27:07;53.05;;;29.90;;
21727;SDS011;11026;50.560;17.852;2023-02-17T00:29:34;53.80;;;30.83;;
21727;SDS011;11026;50.560;17.852;2023-02-17T00:32:01;56.78;;;32.00;;
21727;SDS011;11026;50.560;17.852;2023-02-17T00:34:30;67.22;;;34.47;;
21727;SDS011;11026;50.560;17.852;2023-02-17T00:36:58;63.47;;;34.65;;
21727;SDS011;11026;50.560;17.852;2023-02-17T00:39:25;74.65;;;38.95;;
21727;SDS011;11026;50.560;17.852;2023-02-17T00:41:53;67.38;;;35.92;;
21727;SDS011;11026;50.560;17.852;2023-02-17T00:44:22;64.75;;;35.67;;
21727;SDS011;11026;50.560;17.852;2023-02-17T00:46:51;60.78;;;33.60;;
21727;SDS011;11026;50.560;17.852;2023-02-17T00:49:20;55.60;;;32.17;;
21727;SDS011;11026;50.560;17.852;2023-02-17T00:51:58;59.50;;;32.10;;
21727;SDS011;11026;50.560;17.852;2023-02-17T00:54:27;58.67;;;32.53;;
21727;SDS011;11026;50.560;17.852;2023-02-17T00:56:55;61.80;;;33.67;;
21727;SDS011;11026;50.560;17.852;2023-02-17T00:59:22;60.13;;;32.80;;
21727;SDS011;11026;50.560;17.852;2023-02-17T01:01:50;60.80;;;32.88;;
21727;SDS011;11026;50.560;17.852;2023-02-17T01:04:17;63.30;;;34.88;;
21727;SDS011;11026;50.560;17.852;2023-02-17T01:06:45;64.43;;;34.47;;
21727;SDS011;11026;50.560;17.852;2023-02-17T01:09:13;68.63;;;37.40;;
21727;SDS011;11026;50.560;17.852;2023-02-17T01:11:41;64.25;;;36.53;;
21727;SDS011;11026;50.560;17.852;2023-02-17T01:14:09;68.65;;;37.08;;
21727;SDS011;11026;50.560;17.852;2023-02-17T01:16:40;69.70;;;35.95;;
21727;SDS011;11026;50.560;17.852;2023-02-17T01:19:11;73.10;;;39.05;;
21727;SDS011;11026;50.560;17.852;2023-02-17T01:21:40;68.00;;;36.33;;
21727;SDS011;11026;50.560;17.852;2023-02-17T01:24:09;67.18;;;36.03;;
21727;SDS011;11026;50.560;17.852;2023-02-17T01:26:39;67.03;;;36.25;;
21727;SDS011;11026;50.560;17.852;2023-02-17T01:29:07;68.88;;;37.42;;
21727;SDS011;11026;50.560;17.852;2023-02-17T01:31:34;65.07;;;35.72;;
21727;SDS011;11026;50.560;17.852;2023-02-17T01:34:02;67.05;;;35.95;;
21727;SDS011;11026;50.560;17.852;2023-02-17T01:36:31;67.63;;;36.93;;
21727;SDS011;11026;50.560;17.852;2023-02-17T01:38:59;65.00;;;35.83;;
21727;SDS011;11026;50.560;17.852;2023-02-17T01:41:26;65.82;;;35.85;;
21727;SDS011;11026;50.560;17.852;2023-02-17T01:44:16;69.50;;;36.50;;
21727;SDS011;11026;50.560;17.852;2023-02-17T01:46:47;73.75;;;38.13;;
21727;SDS011;11026;50.560;17.852;2023-02-17T01:49:32;73.10;;;37.63;;
21727;SDS011;11026;50.560;17.852;2023-02-17T01:52:07;70.10;;;37.83;;
21727;SDS011;11026;50.560;17.852;2023-02-17T01:54:58;70.07;;;35.90;;
21727;SDS011;11026;50.560;17.852;2023-02-17T01:57:31;73.82;;;40.45;;
21727;SDS011;11026;50.560;17.852;2023-02-17T02:00:01;74.53;;;39.60;;
21727;SDS011;11026;50.560;17.852;2023-02-17T02:02:30;72.22;;;39.67;;
21727;SDS011;11026;50.560;17.852;2023-02-17T02:04:58;76.70;;;38.17;;
21727;SDS011;11026;50.560;17.852;2023-02-17T02:07:28;72.68;;;40.17;;
21727;SDS011;11026;50.560;17.852;2023-02-17T02:09:58;70.43;;;37.65;;
21727;SDS011;11026;50.560;17.852;2023-02-17T02:12:27;70.70;;;38.30;;
21727;SDS011;11026;50.560;17.852;2023-02-17T02:15:04;73.25;;;38.92;;
21727;SDS011;11026;50.560;17.852;2023-02-17T02:17:41;72.68;;;39.15;;
21727;SDS011;11026;50.560;17.852;2023-02-17T02:37:33;65.53;;;36.08;;
21727;SDS011;11026;50.560;17.852;2023-02-17T02:40:05;69.75;;;37.83;;
21727;SDS011;11026;50.560;17.852;2023-02-17T02:42:36;67.68;;;37.42;;
21727;SDS011;11026;50.560;17.852;2023-02-17T02:45:06;66.50;;;37.30;;
21727;SDS011;11026;50.560;17.852;2023-02-17T02:47:42;67.35;;;36.72;;
21727;SDS011;11026;50.560;17.852;2023-02-17T02:50:13;69.03;;;36.13;;
21727;SDS011;11026;50.560;17.852;2023-02-17T02:55:41;65.97;;;34.88;;
21727;SDS011;11026;50.560;17.852;2023-02-17T02:58:34;61.38;;;34.65;;
21727;SDS011;11026;50.560;17.852;2023-02-17T03:06:52;60.92;;;34.25;;
21727;SDS011;11026;50.560;17.852;2023-02-17T03:09:26;63.95;;;34.65;;
21727;SDS011;11026;50.560;17.852;2023-02-17T03:11:55;62.50;;;34.80;;
21727;SDS011;11026;50.560;17.852;2023-02-17T03:14:26;63.20;;;35.47;;
21727;SDS011;11026;50.560;17.852;2023-02-17T03:16:54;65.03;;;34.83;;
21727;SDS011;11026;50.560;17.852;2023-02-17T03:19:22;66.47;;;35.15;;
21727;SDS011;11026;50.560;17.852;2023-02-17T03:22:03;60.92;;;34.15;;
21727;SDS011;11026;50.560;17.852;2023-02-17T03:24:36;64.03;;;34.63;;
21727;SDS011;11026;50.560;17.852;2023-02-17T03:27:03;73.70;;;39.20;;
21727;SDS011;11026;50.560;17.852;2023-02-17T03:29:31;60.33;;;34.17;;
21727;SDS011;11026;50.560;17.852;2023-02-17T03:31:58;62.75;;;33.33;;
21727;SDS011;11026;50.560;17.852;2023-02-17T03:34:26;61.25;;;34.00;;
21727;SDS011;11026;50.560;17.852;2023-02-17T03:36:54;60.90;;;33.70;;
21727;SDS011;11026;50.560;17.852;2023-02-17T03:39:22;65.00;;;33.28;;
21727;SDS011;11026;50.560;17.852;2023-02-17T03:41:51;56.90;;;32.55;;
21727;SDS011;11026;50.560;17.852;2023-02-17T03:44:20;61.08;;;33.70;;
21727;SDS011;11026;50.560;17.852;2023-02-17T03:46:47;64.07;;;34.55;;
21727;SDS011;11026;50.560;17.852;2023-02-17T03:49:16;55.88;;;31.92;;
21727;SDS011;11026;50.560;17.852;2023-02-17T03:51:43;58.80;;;32.58;;
21727;SDS011;11026;50.560;17.852;2023-02-17T03:54:18;60.40;;;33.95;;
21727;SDS011;11026;50.560;17.852;2023-02-17T03:56:46;55.78;;;32.33;;
21727;SDS011;11026;50.560;17.852;2023-02-17T03:59:13;59.28;;;33.22;;
21727;SDS011;11026;50.560;17.852;2023-02-17T04:01:43;57.72;;;32.80;;
21727;SDS011;11026;50.560;17.852;2023-02-17T04:04:10;57.25;;;32.00;;
21727;SDS011;11026;50.560;17.852;2023-02-17T04:06:39;55.88;;;32.47;;
21727;SDS011;11026;50.560;17.852;2023-02-17T04:09:06;55.08;;;31.83;;
21727;SDS011;11026;50.560;17.852;2023-02-17T04:11:34;59.95;;;31.77;;
21727;SDS011;11026;50.560;17.852;2023-02-17T04:14:03;57.75;;;31.23;;
21727;SDS011;11026;50.560;17.852;2023-02-17T04:16:31;62.55;;;31.50;;
21727;SDS011;11026;50.560;17.852;2023-02-17T04:18:58;56.20;;;31.95;;
21727;SDS011;11026;50.560;17.852;2023-02-17T04:21:27;54.13;;;31.77;;
21727;SDS011;11026;50.560;17.852;2023-02-17T04:23:54;59.85;;;32.88;;
21727;SDS011;11026;50.560;17.852;2023-02-17T04:26:24;55.15;;;31.42;;
21727;SDS011;11026;50.560;17.852;2023-02-17T04:28:52;57.28;;;32.33;;
21727;SDS011;11026;50.560;17.852;2023-02-17T04:31:20;51.78;;;29.92;;
21727;SDS011;11026;50.560;17.852;2023-02-17T04:33:53;53.53;;;30.55;;
21727;SDS011;11026;50.560;17.852;2023-02-17T04:36:21;58.33;;;31.42;;
21727;SDS011;11026;50.560;17.852;2023-02-17T04:38:49;56.40;;;32.05;;
21727;SDS011;11026;50.560;17.852;2023-02-17T04:41:16;60.47;;;31.20;;
21727;SDS011;11026;50.560;17.852;2023-02-17T04:43:43;55.65;;;31.23;;
21727;SDS011;11026;50.560;17.852;2023-02-17T04:46:11;63.65;;;31.50;;
21727;SDS011;11026;50.560;17.852;2023-02-17T04:48:38;60.78;;;31.83;;
21727;SDS011;11026;50.560;17.852;2023-02-17T04:51:06;56.53;;;31.23;;
21727;SDS011;11026;50.560;17.852;2023-02-17T04:53:33;54.60;;;30.52;;
21727;SDS011;11026;50.560;17.852;2023-02-17T04:56:01;60.22;;;31.67;;
21727;SDS011;11026;50.560;17.852;2023-02-17T04:58:29;51.88;;;28.58;;
21727;SDS011;11026;50.560;17.852;2023-02-17T05:00:58;59.95;;;31.83;;
21727;SDS011;11026;50.560;17.852;2023-02-17T05:03:26;55.85;;;31.13;;
21727;SDS011;11026;50.560;17.852;2023-02-17T05:05:56;59.13;;;35.00;;
21727;SDS011;11026;50.560;17.852;2023-02-17T05:08:23;59.33;;;32.20;;
21727;SDS011;11026;50.560;17.852;2023-02-17T05:10:53;54.30;;;29.90;;
21727;SDS011;11026;50.560;17.852;2023-02-17T05:13:20;61.40;;;31.75;;
21727;SDS011;11026;50.560;17.852;2023-02-17T05:15:48;53.97;;;30.33;;
21727;SDS011;11026;50.560;17.852;2023-02-17T05:18:16;53.33;;;29.13;;
21727;SDS011;11026;50.560;17.852;2023-02-17T05:20:44;53.08;;;29.83;;
21727;SDS011;11026;50.560;17.852;2023-02-17T05:23:11;51.47;;;29.77;;
21727;SDS011;11026;50.560;17.852;2023-02-17T05:25:39;57.00;;;30.85;;
21727;SDS011;11026;50.560;17.852;2023-02-17T05:28:07;55.00;;;30.60;;
21727;SDS011;11026;50.560;17.852;2023-02-17T05:30:36;58.83;;;31.77;;
21727;SDS011;11026;50.560;17.852;2023-02-17T05:33:03;57.72;;;31.48;;
21727;SDS011;11026;50.560;17.852;2023-02-17T05:35:33;57.30;;;30.85;;
21727;SDS011;11026;50.560;17.852;2023-02-17T05:38:03;56.00;;;31.35;;
21727;SDS011;11026;50.560;17.852;2023-02-17T05:40:30;52.67;;;30.90;;
21727;SDS011;11026;50.560;17.852;2023-02-17T05:42:59;51.38;;;30.00;;
21727;SDS011;11026;50.560;17.852;2023-02-17T05:45:26;57.45;;;29.60;;
21727;SDS011;11026;50.560;17.852;2023-02-17T05:47:53;58.53;;;32.60;;
21727;SDS011;11026;50.560;17.852;2023-02-17T05:50:21;53.00;;;30.17;;
21727;SDS011;11026;50.560;17.852;2023-02-17T05:52:48;53.53;;;31.02;;
21727;SDS011;11026;50.560;17.852;2023-02-17T05:55:16;56.15;;;30.08;;
21727;SDS011;11026;50.560;17.852;2023-02-17T05:57:43;57.67;;;30.85;;
21727;SDS011;11026;50.560;17.852;2023-02-17T06:00:11;58.33;;;31.10;;
21727;SDS011;11026;50.560;17.852;2023-02-17T06:02:38;58.25;;;32.25;;
21727;SDS011;11026;50.560;17.852;2023-02-17T06:05:07;55.83;;;32.17;;
21727;SDS011;11026;50.560;17.852;2023-02-17T06:07:34;52.78;;;30.65;;
21727;SDS011;11026;50.560;17.852;2023-02-17T06:10:02;59.05;;;31.92;;
21727;SDS011;11026;50.560;17.852;2023-02-17T06:12:30;54.10;;;31.77;;
21727;SDS011;11026;50.560;17.852;2023-02-17T06:14:57;55.65;;;32.50;;
21727;SDS011;11026;50.560;17.852;2023-02-17T06:17:25;61.30;;;35.25;;
21727;SDS011;11026;50.560;17.852;2023-02-17T06:22:31;59.90;;;33.55;;
21727;SDS011;11026;50.560;17.852;2023-02-17T06:24:58;61.33;;;34.22;;
21727;SDS011;11026;50.560;17.852;2023-02-17T06:27:26;62.88;;;33.35;;
21727;SDS011;11026;50.560;17.852;2023-02-17T06:29:53;61.58;;;33.28;;
21727;SDS011;11026;50.560;17.852;2023-02-17T06:32:21;57.42;;;30.55;;
21727;SDS011;11026;50.560;17.852;2023-02-17T06:34:51;57.08;;;32.63;;
21727;SDS011;11026;50.560;17.852;2023-02-17T06:37:19;58.47;;;32.67;;
21727;SDS011;11026;50.560;17.852;2023-02-17T06:39:47;60.83;;;32.80;;
21727;SDS011;11026;50.560;17.852;2023-02-17T06:42:15;51.75;;;28.17;;
21727;SDS011;11026;50.560;17.852;2023-02-17T06:44:42;53.60;;;29.95;;
21727;SDS011;11026;50.560;17.852;2023-02-17T06:47:10;54.92;;;29.00;;
21727;SDS011;11026;50.560;17.852;2023-02-17T06:49:37;52.33;;;28.80;;
21727;SDS011;11026;50.560;17.852;2023-02-17T06:52:06;47.03;;;28.30;;
21727;SDS011;11026;50.560;17.852;2023-02-17T06:54:34;54.35;;;30.48;;
21727;SDS011;11026;50.560;17.852;2023-02-17T06:57:01;52.28;;;29.50;;
21727;SDS011;11026;50.560;17.852;2023-02-17T06:59:30;52.72;;;29.48;;
21727;SDS011;11026;50.560;17.852;2023-02-17T07:01:59;51.15;;;29.63;;
21727;SDS011;11026;50.560;17.852;2023-02-17T07:04:28;52.17;;;28.95;;
21727;SDS011;11026;50.560;17.852;2023-02-17T07:06:55;53.13;;;31.13;;
21727;SDS011;11026;50.560;17.852;2023-02-17T07:09:23;60.70;;;32.17;;
21727;SDS011;11026;50.560;17.852;2023-02-17T07:11:50;55.58;;;32.05;;
21727;SDS011;11026;50.560;17.852;2023-02-17T07:14:17;61.78;;;33.83;;
21727;SDS011;11026;50.560;17.852;2023-02-17T07:16:44;60.75;;;34.58;;
21727;SDS011;11026;50.560;17.852;2023-02-17T07:19:12;57.95;;;33.03;;
21727;SDS011;11026;50.560;17.852;2023-02-17T07:21:46;63.25;;;35.03;;
21727;SDS011;11026;50.560;17.852;2023-02-17T07:24:15;66.95;;;35.67;;
21727;SDS011;11026;50.560;17.852;2023-02-17T07:26:42;63.95;;;35.25;;
21727;SDS011;11026;50.560;17.852;2023-02-17T07:29:10;69.75;;;36.28;;
21727;SDS011;11026;50.560;17.852;2023-02-17T07:31:37;60.83;;;35.83;;
21727;SDS011;11026;50.560;17.852;2023-02-17T07:34:05;67.30;;;37.72;;
21727;SDS011;11026;50.560;17.852;2023-02-17T07:36:32;64.93;;;36.22;;
21727;SDS011;11026;50.560;17.852;2023-02-17T07:39:01;71.03;;;38.40;;
21727;SDS011;11026;50.560;17.852;2023-02-17T07:41:29;63.40;;;36.78;;
21727;SDS011;11026;50.560;17.852;2023-02-17T07:43:59;67.53;;;38.15;;
21727;SDS011;11026;50.560;17.852;2023-02-17T07:46:26;72.03;;;38.85;;
21727;SDS011;11026;50.560;17.852;2023-02-17T07:48:53;66.57;;;39.25;;
21727;SDS011;11026;50.560;17.852;2023-02-17T07:51:22;70.22;;;38.58;;
21727;SDS011;11026;50.560;17.852;2023-02-17T07:53:50;67.25;;;38.10;;
21727;SDS011;11026;50.560;17.852;2023-02-17T07:56:19;69.43;;;39.50;;
21727;SDS011;11026;50.560;17.852;2023-02-17T07:58:47;68.90;;;40.47;;
21727;SDS011;11026;50.560;17.852;2023-02-17T08:01:19;71.55;;;41.10;;
21727;SDS011;11026;50.560;17.852;2023-02-17T08:03:48;76.55;;;39.90;;
21727;SDS011;11026;50.560;17.852;2023-02-17T08:06:19;73.35;;;41.33;;
21727;SDS011;11026;50.560;17.852;2023-02-17T08:08:48;69.00;;;38.95;;
21727;SDS011;11026;50.560;17.852;2023-02-17T08:11:46;69.57;;;40.10;;
21727;SDS011;11026;50.560;17.852;2023-02-17T08:14:31;63.92;;;38.05;;
21727;SDS011;11026;50.560;17.852;2023-02-17T08:17:00;65.40;;;38.83;;
21727;SDS011;11026;50.560;17.852;2023-02-17T08:19:27;63.63;;;37.60;;
21727;SDS011;11026;50.560;17.852;2023-02-17T08:22:12;69.90;;;39.08;;
21727;SDS011;11026;50.560;17.852;2023-02-17T08:24:39;63.90;;;39.25;;
21727;SDS011;11026;50.560;17.852;2023-02-17T08:27:07;70.32;;;39.78;;
21727;SDS011;11026;50.560;17.852;2023-02-17T08:29:35;69.25;;;39.83;;
21727;SDS011;11026;50.560;17.852;2023-02-17T08:32:02;70.05;;;39.38;;
21727;SDS011;11026;50.560;17.852;2023-02-17T08:34:30;73.03;;;40.20;;
21727;SDS011;11026;50.560;17.852;2023-02-17T08:37:01;68.93;;;39.80;;
21727;SDS011;11026;50.560;17.852;2023-02-17T08:39:30;65.30;;;39.47;;
21727;SDS011;11026;50.560;17.852;2023-02-17T08:42:00;64.95;;;39.40;;
21727;SDS011;11026;50.560;17.852;2023-02-17T08:44:27;68.30;;;39.78;;
21727;SDS011;11026;50.560;17.852;2023-02-17T08:46:55;62.67;;;38.05;;
21727;SDS011;11026;50.560;17.852;2023-02-17T08:49:24;64.05;;;38.42;;
21727;SDS011;11026;50.560;17.852;2023-02-17T08:51:52;68.63;;;38.78;;
21727;SDS011;11026;50.560;17.852;2023-02-17T08:54:20;64.43;;;38.67;;
21727;SDS011;11026;50.560;17.852;2023-02-17T08:56:47;67.10;;;38.50;;
21727;SDS011;11026;50.560;17.852;2023-02-17T08:59:16;69.60;;;38.90;;
21727;SDS011;11026;50.560;17.852;2023-02-17T09:01:43;64.93;;;36.55;;
21727;SDS011;11026;50.560;17.852;2023-02-17T09:04:11;59.03;;;36.70;;
21727;SDS011;11026;50.560;17.852;2023-02-17T09:06:41;60.67;;;35.58;;
21727;SDS011;11026;50.560;17.852;2023-02-17T09:09:14;57.60;;;34.95;;
21727;SDS011;11026;50.560;17.852;2023-02-17T09:11:45;60.70;;;34.97;;
21727;SDS011;11026;50.560;17.852;2023-02-17T09:14:12;64.28;;;37.45;;
21727;SDS011;11026;50.560;17.852;2023-02-17T09:16:40;62.15;;;36.35;;
21727;SDS011;11026;50.560;17.852;2023-02-17T09:19:08;61.85;;;35.90;;
21727;SDS011;11026;50.560;17.852;2023-02-17T09:21:35;61.75;;;36.40;;
21727;SDS011;11026;50.560;17.852;2023-02-17T09:24:03;63.05;;;36.38;;
21727;SDS011;11026;50.560;17.852;2023-02-17T09:26:30;60.42;;;37.15;;
21727;SDS011;11026;50.560;17.852;2023-02-17T09:29:15;59.88;;;36.13;;
21727;SDS011;11026;50.560;17.852;2023-02-17T09:31:43;65.65;;;37.97;;
21727;SDS011;11026;50.560;17.852;2023-02-17T09:34:13;61.42;;;37.22;;
21727;SDS011;11026;50.560;17.852;2023-02-17T09:36:41;64.68;;;37.70;;
21727;SDS011;11026;50.560;17.852;2023-02-17T09:39:10;60.70;;;35.38;;
21727;SDS011;11026;50.560;17.852;2023-02-17T09:41:49;66.00;;;38.00;;
21727;SDS011;11026;50.560;17.852;2023-02-17T09:44:22;66.30;;;38.78;;
21727;SDS011;11026;50.560;17.852;2023-02-17T09:49:34;67.15;;;38.75;;
21727;SDS011;11026;50.560;17.852;2023-02-17T09:52:07;64.28;;;39.22;;
21727;SDS011;11026;50.560;17.852;2023-02-17T09:54:37;58.95;;;34.90;;
21727;SDS011;11026;50.560;17.852;2023-02-17T09:57:14;60.75;;;36.47;;
21727;SDS011;11026;50.560;17.852;2023-02-17T10:02:46;59.35;;;35.33;;
21727;SDS011;11026;50.560;17.852;2023-02-17T10:05:27;59.83;;;35.03;;
21727;SDS011;11026;50.560;17.852;2023-02-17T10:10:53;50.55;;;32.40;;
21727;SDS011;11026;50.560;17.852;2023-02-17T10:13:28;53.63;;;32.45;;
21727;SDS011;11026;50.560;17.852;2023-02-17T10:16:02;53.35;;;34.80;;
21727;SDS011;11026;50.560;17.852;2023-02-17T10:18:40;54.65;;;31.90;;
21727;SDS011;11026;50.560;17.852;2023-02-17T10:21:18;49.72;;;31.38;;
21727;SDS011;11026;50.560;17.852;2023-02-17T10:23:51;53.72;;;32.85;;
21727;SDS011;11026;50.560;17.852;2023-02-17T10:29:30;56.67;;;33.25;;
21727;SDS011;11026;50.560;17.852;2023-02-17T10:32:26;52.33;;;32.05;;
21727;SDS011;11026;50.560;17.852;2023-02-17T10:37:34;49.05;;;29.98;;
21727;SDS011;11026;50.560;17.852;2023-02-17T10:40:11;52.42;;;31.38;;
21727;SDS011;11026;50.560;17.852;2023-02-17T10:42:43;50.22;;;30.02;;
21727;SDS011;11026;50.560;17.852;2023-02-17T10:48:17;47.05;;;30.33;;
21727;SDS011;11026;50.560;17.852;2023-02-17T10:50:48;37.28;;;23.98;;
21727;SDS011;11026;50.560;17.852;2023-02-17T10:58:25;33.25;;;22.30;;
21727;SDS011;11026;50.560;17.852;2023-02-17T11:01:03;29.05;;;18.58;;
21727;SDS011;11026;50.560;17.852;2023-02-17T11:03:39;27.17;;;18.35;;
21727;SDS011;11026;50.560;17.852;2023-02-17T11:08:48;20.65;;;14.13;;
21727;SDS011;11026;50.560;17.852;2023-02-17T11:11:18;19.27;;;13.90;;
21727;SDS011;11026;50.560;17.852;2023-02-17T11:14:00;18.30;;;12.93;;
21727;SDS011;11026;50.560;17.852;2023-02-17T11:16:51;16.45;;;11.60;;
21727;SDS011;11026;50.560;17.852;2023-02-17T11:19:27;16.30;;;10.98;;
21727;SDS011;11026;50.560;17.852;2023-02-17T11:22:02;13.05;;;10.07;;
21727;SDS011;11026;50.560;17.852;2023-02-17T11:24:33;14.32;;;9.90;;
21727;SDS011;11026;50.560;17.852;2023-02-17T11:27:07;13.95;;;9.88;;
21727;SDS011;11026;50.560;17.852;2023-02-17T11:32:41;12.73;;;8.82;;
21727;SDS011;11026;50.560;17.852;2023-02-17T11:38:14;10.50;;;8.68;;
21727;SDS011;11026;50.560;17.852;2023-02-17T11:43:25;11.35;;;8.02;;
21727;SDS011;11026;50.560;17.852;2023-02-17T11:54:30;10.77;;;7.68;;
21727;SDS011;11026;50.560;17.852;2023-02-17T11:59:48;9.35;;;5.90;;
21727;SDS011;11026;50.560;17.852;2023-02-17T12:07:56;8.90;;;6.53;;
21727;SDS011;11026;50.560;17.852;2023-02-17T12:16:50;6.20;;;5.38;;
21727;SDS011;11026;50.560;17.852;2023-02-17T12:19:40;8.50;;;5.93;;
21727;SDS011;11026;50.560;17.852;2023-02-17T12:25:23;6.32;;;5.25;;
21727;SDS011;11026;50.560;17.852;2023-02-17T12:30:42;8.60;;;5.72;;
21727;SDS011;11026;50.560;17.852;2023-02-17T12:36:21;7.93;;;6.03;;
21727;SDS011;11026;50.560;17.852;2023-02-17T12:41:58;9.10;;;6.20;;
21727;SDS011;11026;50.560;17.852;2023-02-17T12:44:34;5.70;;;4.72;;
21727;SDS011;11026;50.560;17.852;2023-02-17T12:47:49;9.07;;;6.75;;
21727;SDS011;11026;50.560;17.852;2023-02-17T12:50:05;9.00;;;7.28;;
21727;SDS011;11026;50.560;17.852;2023-02-17T12:52:50;6.65;;;5.93;;
21727;SDS011;11026;50.560;17.852;2023-02-17T12:55:38;8.30;;;6.45;;
21727;SDS011;11026;50.560;17.852;2023-02-17T12:58:15;13.98;;;7.90;;
21727;SDS011;11026;50.560;17.852;2023-02-17T13:00:53;10.90;;;7.20;;
21727;SDS011;11026;50.560;17.852;2023-02-17T13:03:27;22.05;;;16.08;;
21727;SDS011;11026;50.560;17.852;2023-02-17T13:08:30;16.23;;;13.52;;
21727;SDS011;11026;50.560;17.852;2023-02-17T13:11:10;9.52;;;7.75;;
21727;SDS011;11026;50.560;17.852;2023-02-17T13:13:39;15.77;;;11.27;;
21727;SDS011;11026;50.560;17.852;2023-02-17T13:16:13;10.15;;;7.97;;
21727;SDS011;11026;50.560;17.852;2023-02-17T13:18:42;10.50;;;8.30;;
21727;SDS011;11026;50.560;17.852;2023-02-17T13:26:43;10.25;;;7.97;;
21727;SDS011;11026;50.560;17.852;2023-02-17T13:32:05;10.90;;;7.95;;
21727;SDS011;11026;50.560;17.852;2023-02-17T13:34:38;13.23;;;9.30;;
21727;SDS011;11026;50.560;17.852;2023-02-17T13:39:45;15.52;;;10.80;;
21727;SDS011;11026;50.560;17.852;2023-02-17T13:45:28;17.92;;;11.23;;
21727;SDS011;11026;50.560;17.852;2023-02-17T13:48:05;12.95;;;10.05;;
21727;SDS011;11026;50.560;17.852;2023-02-17T13:50:44;13.57;;;9.52;;
21727;SDS011;11026;50.560;17.852;2023-02-17T13:56:07;12.68;;;9.38;;
21727;SDS011;11026;50.560;17.852;2023-02-17T13:58:39;11.55;;;8.52;;
21727;SDS011;11026;50.560;17.852;2023-02-17T14:01:26;10.82;;;8.77;;
21727;SDS011;11026;50.560;17.852;2023-02-17T14:03:55;12.82;;;9.43;;
21727;SDS011;11026;50.560;17.852;2023-02-17T14:08:58;13.55;;;10.52;;
21727;SDS011;11026;50.560;17.852;2023-02-17T14:11:27;15.27;;;11.40;;
21727;SDS011;11026;50.560;17.852;2023-02-17T14:13:58;15.15;;;10.93;;
21727;SDS011;11026;50.560;17.852;2023-02-17T14:16:30;15.75;;;10.77;;
21727;SDS011;11026;50.560;17.852;2023-02-17T14:19:20;14.60;;;11.93;;
21727;SDS011;11026;50.560;17.852;2023-02-17T14:22:03;15.18;;;11.68;;
21727;SDS011;11026;50.560;17.852;2023-02-17T14:24:33;13.63;;;10.90;;
21727;SDS011;11026;50.560;17.852;2023-02-17T14:27:15;13.35;;;10.55;;
21727;SDS011;11026;50.560;17.852;2023-02-17T14:29:43;14.15;;;10.38;;
21727;SDS011;11026;50.560;17.852;2023-02-17T14:32:28;11.75;;;9.90;;
21727;SDS011;11026;50.560;17.852;2023-02-17T14:37:41;10.52;;;9.27;;
21727;SDS011;11026;50.560;17.852;2023-02-17T14:40:14;12.40;;;9.07;;
21727;SDS011;11026;50.560;17.852;2023-02-17T14:42:45;10.82;;;8.80;;
21727;SDS011;11026;50.560;17.852;2023-02-17T14:45:13;10.38;;;8.65;;
21727;SDS011;11026;50.560;17.852;2023-02-17T14:47:41;10.88;;;9.40;;
21727;SDS011;11026;50.560;17.852;2023-02-17T14:50:10;11.13;;;9.77;;
21727;SDS011;11026;50.560;17.852;2023-02-17T14:52:47;13.88;;;10.57;;
21727;SDS011;11026;50.560;17.852;2023-02-17T14:55:23;12.85;;;9.55;;
21727;SDS011;11026;50.560;17.852;2023-02-17T14:57:59;11.93;;;9.77;;
21727;SDS011;11026;50.560;17.852;2023-02-17T15:00:27;9.85;;;8.88;;
21727;SDS011;11026;50.560;17.852;2023-02-17T15:02:57;11.07;;;8.90;;
21727;SDS011;11026;50.560;17.852;2023-02-17T15:05:24;10.18;;;8.68;;
21727;SDS011;11026;50.560;17.852;2023-02-17T15:07:52;12.48;;;11.10;;
21727;SDS011;11026;50.560;17.852;2023-02-17T15:10:26;11.45;;;9.52;;
21727;SDS011;11026;50.560;17.852;2023-02-17T15:12:55;12.20;;;8.57;;
21727;SDS011;11026;50.560;17.852;2023-02-17T15:15:23;10.85;;;8.57;;
21727;SDS011;11026;50.560;17.852;2023-02-17T15:17:51;12.85;;;8.52;;
21727;SDS011;11026;50.560;17.852;2023-02-17T15:20:19;12.65;;;8.10;;
21727;SDS011;11026;50.560;17.852;2023-02-17T15:22:46;9.30;;;7.70;;
21727;SDS011;11026;50.560;17.852;2023-02-17T15:25:19;11.15;;;7.20;;
21727;SDS011;11026;50.560;17.852;2023-02-17T15:27:50;8.85;;;7.05;;
21727;SDS011;11026;50.560;17.852;2023-02-17T15:30:18;9.40;;;7.65;;
21727;SDS011;11026;50.560;17.852;2023-02-17T15:32:47;9.70;;;7.53;;
21727;SDS011;11026;50.560;17.852;2023-02-17T15:35:22;9.27;;;7.53;;
21727;SDS011;11026;50.560;17.852;2023-02-17T15:37:52;9.95;;;7.25;;
21727;SDS011;11026;50.560;17.852;2023-02-17T15:40:21;12.52;;;8.45;;
21727;SDS011;11026;50.560;17.852;2023-02-17T15:42:55;11.45;;;8.93;;
21727;SDS011;11026;50.560;17.852;2023-02-17T15:45:24;12.93;;;9.60;;
21727;SDS011;11026;50.560;17.852;2023-02-17T15:47:59;13.98;;;9.50;;
21727;SDS011;11026;50.560;17.852;2023-02-17T15:50:30;8.70;;;7.57;;
21727;SDS011;11026;50.560;17.852;2023-02-17T15:52:59;11.45;;;8.75;;
21727;SDS011;11026;50.560;17.852;2023-02-17T15:55:27;11.27;;;8.32;;
21727;SDS011;11026;50.560;17.852;2023-02-17T15:57:56;11.82;;;8.85;;
21727;SDS011;11026;50.560;17.852;2023-02-17T16:00:34;11.75;;;7.90;;
21727;SDS011;11026;50.560;17.852;2023-02-17T16:03:03;9.48;;;8.25;;
21727;SDS011;11026;50.560;17.852;2023-02-17T16:05:36;10.90;;;7.32;;
21727;SDS011;11026;50.560;17.852;2023-02-17T16:08:04;10.93;;;8.30;;
21727;SDS011;11026;50.560;17.852;2023-02-17T16:10:32;11.07;;;8.90;;
21727;SDS011;11026;50.560;17.852;2023-02-17T16:13:01;13.73;;;9.38;;
21727;SDS011;11026;50.560;17.852;2023-02-17T16:15:31;16.88;;;11.18;;
21727;SDS011;11026;50.560;17.852;2023-02-17T16:17:59;14.43;;;8.38;;
21727;SDS011;11026;50.560;17.852;2023-02-17T16:20:27;14.88;;;9.13;;
21727;SDS011;11026;50.560;17.852;2023-02-17T16:23:02;9.93;;;7.43;;
21727;SDS011;11026;50.560;17.852;2023-02-17T16:25:30;10.98;;;6.55;;
21727;SDS011;11026;50.560;17.852;2023-02-17T16:27:58;6.88;;;4.40;;
21727;SDS011;11026;50.560;17.852;2023-02-17T16:30:28;4.50;;;3.40;;
21727;SDS011;11026;50.560;17.852;2023-02-17T16:32:59;3.58;;;3.00;;
21727;SDS011;11026;50.560;17.852;2023-02-17T16:35:28;6.07;;;3.90;;
21727;SDS011;11026;50.560;17.852;2023-02-17T16:38:00;4.72;;;3.60;;